createdAt,value
2024-03-08T00:00:33.974Z,39.42
2024-03-08T00:04:36.952Z,39.90
2024-03-08T00:06:38.449Z,38.83
2024-03-08T00:08:39.978Z,40.78
2024-03-08T00:10:41.517Z,40.53
2024-03-08T00:12:44.520Z,39.35
2024-03-08T00:14:46.207Z,45.08
2024-03-08T00:16:47.749Z,43.08
2024-03-08T00:19:07.802Z,38.85
2024-03-08T00:21:10.921Z,40.38
2024-03-08T00:23:12.906Z,43.00
2024-03-08T00:25:16.611Z,43.95
2024-03-08T00:27:37.939Z,42.80
2024-03-08T00:29:42.644Z,39.45
2024-03-08T00:31:45.334Z,41.80
2024-03-08T00:33:47.363Z,42.90
2024-03-08T00:35:50.999Z,41.45
2024-03-08T00:37:54.045Z,43.80
2024-03-08T00:39:56.008Z,46.88
2024-03-08T00:41:58.777Z,42.33
2024-03-08T00:44:02.527Z,44.30
2024-03-08T00:46:05.567Z,43.53
2024-03-08T00:48:08.435Z,43.55
2024-03-08T00:50:11.423Z,46.30
2024-03-08T00:52:13.202Z,44.20
2024-03-08T00:54:34.719Z,43.47
2024-03-08T00:56:55.314Z,45.58
2024-03-08T00:59:15.951Z,41.85
2024-03-08T01:01:19.552Z,44.15
2024-03-08T01:03:21.904Z,44.13
2024-03-08T01:05:27.183Z,44.00
2024-03-08T01:07:30.240Z,43.40
2024-03-08T01:09:33.143Z,43.85
2024-03-08T01:11:35.408Z,43.17
2024-03-08T01:13:55.516Z,46.05
2024-03-08T01:15:57.062Z,43.75
2024-03-08T01:17:58.692Z,45.78
2024-03-08T01:20:00.233Z,45.05
2024-03-08T01:22:01.760Z,45.17
2024-03-08T01:24:04.165Z,44.60
2024-03-08T01:26:05.956Z,44.08
2024-03-08T01:28:07.725Z,42.88
2024-03-08T01:30:10.822Z,44.10
2024-03-08T01:32:13.206Z,46.13
2024-03-08T01:34:14.724Z,44.10
2024-03-08T01:36:16.752Z,48.40
2024-03-08T01:38:18.300Z,47.05
2024-03-08T01:40:19.809Z,48.40
2024-03-08T01:42:40.843Z,45.72
2024-03-08T01:44:42.378Z,48.75
2024-03-08T01:46:45.818Z,48.53
2024-03-08T01:48:47.654Z,48.20
2024-03-08T01:50:49.488Z,49.40
2024-03-08T01:52:51.085Z,48.67
2024-03-08T01:54:52.635Z,49.33
2024-03-08T01:57:12.875Z,47.90
2024-03-08T01:59:33.574Z,46.90
2024-03-08T02:01:35.435Z,47.92
2024-03-08T02:03:36.912Z,48.10
2024-03-08T02:05:39.594Z,46.30
2024-03-08T02:07:59.609Z,48.10
2024-03-08T02:10:19.595Z,47.88
2024-03-08T02:12:40.142Z,49.15
2024-03-08T02:14:41.764Z,50.25
2024-03-08T02:16:43.316Z,46.40
2024-03-08T02:18:44.932Z,48.97
2024-03-08T02:20:48.797Z,51.05
2024-03-08T02:22:51.963Z,48.45
2024-03-08T02:24:53.443Z,49.35
2024-03-08T02:26:54.973Z,49.95
2024-03-08T02:28:56.793Z,48.85
2024-03-08T02:30:58.986Z,51.03
2024-03-08T02:33:00.845Z,48.95
2024-03-08T02:35:02.414Z,49.97
2024-03-08T02:37:04.756Z,48.97
2024-03-08T02:39:09.196Z,49.40
2024-03-08T02:41:11.827Z,50.35
2024-03-08T02:43:13.984Z,50.22
2024-03-08T02:45:15.558Z,51.08
2024-03-08T02:47:17.081Z,49.00
2024-03-08T02:49:18.564Z,48.80
2024-03-08T02:51:21.137Z,49.88
2024-03-08T02:53:23.405Z,49.90
2024-03-08T02:55:27.200Z,51.17
2024-03-08T03:01:33.188Z,48.70
2024-03-08T03:03:34.742Z,47.50
2024-03-08T03:05:36.444Z,49.35
2024-03-08T03:07:38.548Z,49.45
2024-03-08T03:09:40.106Z,48.65
2024-03-08T03:11:45.113Z,48.35
2024-03-08T03:14:05.570Z,51.63
2024-03-08T03:16:07.118Z,47.38
2024-03-08T03:18:28.439Z,50.40
2024-03-08T03:20:34.400Z,48.80
2024-03-08T03:22:36.253Z,49.22
2024-03-08T03:24:39.527Z,49.47
2024-03-08T03:26:42.532Z,50.93
2024-03-08T03:28:44.449Z,49.78
2024-03-08T03:30:48.472Z,49.92
2024-03-08T03:34:54.146Z,44.35
2024-03-08T03:36:58.043Z,47.00
2024-03-08T03:41:50.216Z,46.53
2024-03-08T03:43:52.460Z,48.53
2024-03-08T03:46:14.235Z,49.50
2024-03-08T03:48:16.626Z,47.75
2024-03-08T03:50:20.270Z,47.20
2024-03-08T03:52:23.233Z,46.20
2024-03-08T03:54:25.044Z,48.45
2024-03-08T03:56:28.444Z,48.22
2024-03-08T03:58:30.428Z,50.22
2024-03-08T04:00:32.042Z,47.72
2024-03-08T04:02:35.794Z,50.28
2024-03-08T04:04:56.919Z,50.33
2024-03-08T04:06:59.609Z,51.13
2024-03-08T04:09:03.061Z,50.45
2024-03-08T04:11:05.685Z,50.90
2024-03-08T04:13:09.205Z,49.30
2024-03-08T04:15:13.339Z,49.10
2024-03-08T04:17:15.650Z,48.15
2024-03-08T04:19:17.180Z,49.10
2024-03-08T04:21:20.166Z,48.60
2024-03-08T04:23:40.946Z,46.63
2024-03-08T04:25:43.346Z,48.80
2024-03-08T04:27:45.669Z,48.80
2024-03-08T04:29:47.796Z,48.45
2024-03-08T04:31:49.341Z,47.25
2024-03-08T04:33:51.019Z,45.55
2024-03-08T04:35:52.656Z,48.83
2024-03-08T04:37:54.153Z,47.08
2024-03-08T04:39:55.736Z,49.63
2024-03-08T04:42:01.211Z,48.90
2024-03-08T04:44:04.192Z,49.28
2024-03-08T04:46:24.694Z,50.67
2024-03-08T04:48:44.655Z,50.20
2024-03-08T04:50:46.269Z,50.10
2024-03-08T04:52:48.772Z,50.75
2024-03-08T04:54:50.360Z,52.65
2024-03-08T04:56:52.053Z,52.30
2024-03-08T04:58:54.429Z,52.03
2024-03-08T05:00:56.758Z,52.60
2024-03-08T05:02:58.272Z,52.15
2024-03-08T05:04:59.753Z,52.65
2024-03-08T05:07:02.175Z,51.55
2024-03-08T05:09:14.645Z,52.30
2024-03-08T05:11:16.451Z,49.67
2024-03-08T05:13:36.799Z,49.97
2024-03-08T05:15:40.333Z,50.67
2024-03-08T05:18:00.920Z,49.92
2024-03-08T05:20:21.081Z,49.33
2024-03-08T05:22:43.894Z,49.05
2024-03-08T05:26:47.798Z,45.05
2024-03-08T05:28:49.885Z,47.80
2024-03-08T05:30:51.386Z,50.50
2024-03-08T05:32:52.960Z,49.05
2024-03-08T05:35:13.389Z,49.30
2024-03-08T05:37:14.893Z,50.30
2024-03-08T05:39:16.973Z,47.97
2024-03-08T05:41:19.295Z,48.72
2024-03-08T05:43:20.989Z,52.65
2024-03-08T05:45:22.609Z,47.10
2024-03-08T05:47:24.137Z,48.08
2024-03-08T05:49:45.552Z,48.35
2024-03-08T05:52:05.788Z,47.97
2024-03-08T05:54:08.294Z,47.30
2024-03-08T05:56:30.129Z,45.60
2024-03-08T05:58:32.568Z,47.30
2024-03-08T06:00:34.089Z,48.30
2024-03-08T06:02:37.688Z,50.67
2024-03-08T06:04:39.283Z,50.47
2024-03-08T06:06:41.637Z,45.17
2024-03-08T06:09:10.014Z,47.17
2024-03-08T06:11:11.988Z,47.17
2024-03-08T06:13:13.619Z,44.88
2024-03-08T06:15:16.279Z,44.88
2024-03-08T06:17:18.974Z,44.47
2024-03-08T06:19:20.439Z,45.35
2024-03-08T06:21:23.937Z,45.08
2024-03-08T06:23:25.447Z,47.22
2024-03-08T06:25:26.931Z,42.88
2024-03-08T06:27:28.625Z,44.63
2024-03-08T06:29:50.426Z,44.80
2024-03-08T06:31:53.487Z,42.33
2024-03-08T06:33:57.004Z,47.72
2024-03-08T06:35:59.365Z,46.13
2024-03-08T06:38:01.780Z,44.67
2024-03-08T06:40:09.224Z,48.05
2024-03-08T06:42:12.254Z,45.35
2024-03-08T06:44:14.893Z,46.67
2024-03-08T06:46:17.042Z,47.83
2024-03-08T06:48:19.112Z,46.00
2024-03-08T06:50:22.671Z,45.72
2024-03-08T06:52:48.411Z,45.40
2024-03-08T06:54:50.482Z,44.17
2024-03-08T06:56:52.966Z,44.15
2024-03-08T06:58:54.912Z,43.60
2024-03-08T07:00:59.628Z,46.60
2024-03-08T07:03:04.627Z,48.10
2024-03-08T07:05:08.967Z,44.65
2024-03-08T07:07:32.742Z,43.03
2024-03-08T07:09:35.469Z,43.83
2024-03-08T07:11:38.235Z,44.63
2024-03-08T07:13:40.032Z,42.70
2024-03-08T07:15:42.689Z,42.30
2024-03-08T07:17:45.928Z,41.97
2024-03-08T07:19:49.564Z,39.22
2024-03-08T07:21:51.366Z,42.35
2024-03-08T07:24:01.952Z,39.47
2024-03-08T07:26:03.503Z,40.40
2024-03-08T07:28:05.181Z,39.17
2024-03-08T07:30:44.789Z,36.30
2024-03-08T07:32:46.932Z,38.10
2024-03-08T07:34:49.730Z,37.65
2024-03-08T07:36:52.104Z,35.30
2024-03-08T07:38:53.706Z,31.63
2024-03-08T07:41:15.754Z,32.35
2024-03-08T07:43:17.631Z,31.38
2024-03-08T07:45:19.156Z,31.83
2024-03-08T07:47:23.614Z,30.42
2024-03-08T07:49:26.803Z,30.38
2024-03-08T07:51:28.339Z,29.23
2024-03-08T07:53:29.993Z,29.98
2024-03-08T07:55:32.743Z,27.33
2024-03-08T07:57:34.405Z,27.10
2024-03-08T07:59:35.919Z,27.83
2024-03-08T08:01:37.761Z,29.67
2024-03-08T08:03:39.307Z,28.92
2024-03-08T08:05:59.337Z,25.48
2024-03-08T08:08:00.977Z,25.42
2024-03-08T08:10:02.515Z,25.70
2024-03-08T08:12:04.606Z,26.98
2024-03-08T08:14:06.107Z,26.73
2024-03-08T08:16:07.629Z,27.20
2024-03-08T08:18:10.943Z,25.25
2024-03-08T08:20:14.199Z,25.13
2024-03-08T08:22:15.759Z,26.23
2024-03-08T08:24:17.345Z,25.58
2024-03-08T08:26:18.826Z,25.00
2024-03-08T08:28:20.367Z,24.30
2024-03-08T08:30:22.070Z,26.02
2024-03-08T08:32:23.981Z,25.30
2024-03-08T08:34:27.182Z,25.13
2024-03-08T08:36:31.053Z,25.63
2024-03-08T08:38:33.363Z,25.02
2024-03-08T08:40:36.139Z,26.52
2024-03-08T08:42:58.564Z,23.85
2024-03-08T08:45:05.230Z,24.77
2024-03-08T08:47:15.480Z,24.80
2024-03-08T08:49:21.680Z,25.58
2024-03-08T08:51:24.285Z,25.20
2024-03-08T08:53:25.950Z,24.25
2024-03-08T08:55:27.995Z,24.60
2024-03-08T08:57:29.728Z,23.85
2024-03-08T08:59:31.444Z,24.05
2024-03-08T09:01:34.363Z,25.15
2024-03-08T09:03:36.072Z,23.85
2024-03-08T09:05:39.671Z,24.70
2024-03-08T09:07:41.904Z,24.15
2024-03-08T09:09:43.681Z,23.67
2024-03-08T09:11:45.391Z,23.80
2024-03-08T09:13:50.229Z,23.77
2024-03-08T09:16:11.782Z,23.75
2024-03-08T09:18:13.624Z,22.85
2024-03-08T09:20:33.519Z,24.05
2024-03-08T09:22:35.294Z,22.17
2024-03-08T09:24:37.128Z,23.58
2024-03-08T09:26:38.934Z,24.08
2024-03-08T09:28:40.499Z,23.08
2024-03-08T09:30:43.815Z,23.05
2024-03-08T09:32:47.816Z,22.65
2024-03-08T09:34:49.572Z,23.05
2024-03-08T09:36:53.212Z,22.63
2024-03-08T09:38:56.274Z,22.30
2024-03-08T09:40:58.375Z,21.73
2024-03-08T09:43:00.902Z,23.88
2024-03-08T09:45:04.287Z,21.65
2024-03-08T09:47:08.124Z,21.60
2024-03-08T09:51:17.104Z,21.02
2024-03-08T09:53:19.845Z,22.10
2024-03-08T09:55:24.385Z,20.63
2024-03-08T09:57:26.700Z,22.95
2024-03-08T09:59:49.664Z,20.95
2024-03-08T10:02:14.090Z,21.60
2024-03-08T10:04:16.405Z,22.05
2024-03-08T10:06:23.232Z,20.88
2024-03-08T10:08:26.207Z,22.30
2024-03-08T10:10:46.542Z,22.00
2024-03-08T10:13:10.345Z,21.65
2024-03-08T10:15:32.242Z,22.73
2024-03-08T10:17:35.655Z,22.23
2024-03-08T10:19:37.555Z,20.87
2024-03-08T10:21:49.051Z,20.83
2024-03-08T10:24:11.938Z,19.85
2024-03-08T10:26:19.705Z,21.23
2024-03-08T10:28:21.827Z,20.27
2024-03-08T10:30:24.347Z,20.42
2024-03-08T10:32:26.093Z,18.67
2024-03-08T10:34:27.938Z,19.65
2024-03-08T10:36:29.646Z,20.83
2024-03-08T10:38:33.818Z,21.17
2024-03-08T10:40:55.854Z,20.35
2024-03-08T10:42:58.281Z,20.17
2024-03-08T10:45:25.980Z,21.33
2024-03-08T10:47:31.166Z,18.10
2024-03-08T10:49:40.209Z,19.30
2024-03-08T10:51:43.142Z,17.88
2024-03-08T10:54:04.304Z,20.17
2024-03-08T10:56:06.151Z,19.95
2024-03-08T10:58:08.868Z,17.35
2024-03-08T11:00:12.685Z,18.83
2024-03-08T11:02:14.361Z,17.45
2024-03-08T11:04:17.104Z,19.45
2024-03-08T11:06:19.598Z,18.38
2024-03-08T11:08:40.287Z,18.10
2024-03-08T11:10:56.830Z,17.98
2024-03-08T11:12:59.625Z,16.95
2024-03-08T11:15:12.061Z,17.92
2024-03-08T11:17:17.372Z,17.15
2024-03-08T11:19:25.228Z,17.90
2024-03-08T11:21:28.093Z,17.52
2024-03-08T11:23:32.519Z,14.80
2024-03-08T11:25:40.781Z,15.27
2024-03-08T11:27:53.623Z,16.10
2024-03-08T11:30:09.958Z,14.73
2024-03-08T11:32:12.701Z,15.65
2024-03-08T11:34:17.424Z,15.93
2024-03-08T11:36:23.296Z,17.10
2024-03-08T11:38:25.742Z,16.05
2024-03-08T11:40:27.676Z,16.20
2024-03-08T11:42:29.271Z,15.43
2024-03-08T11:44:32.838Z,14.93
2024-03-08T11:46:35.087Z,16.58
2024-03-08T11:48:39.547Z,15.98
2024-03-08T11:50:41.052Z,15.88
2024-03-08T11:52:45.218Z,13.48
2024-03-08T11:55:00.685Z,13.93
2024-03-08T11:57:02.273Z,15.90
2024-03-08T11:59:04.014Z,14.43
2024-03-08T12:01:06.916Z,14.70
2024-03-08T12:03:10.918Z,15.05
2024-03-08T12:05:16.741Z,14.52
2024-03-08T12:07:20.186Z,14.07
2024-03-08T12:09:23.393Z,13.55
2024-03-08T12:11:25.789Z,13.85
2024-03-08T12:13:51.368Z,13.55
2024-03-08T12:15:52.992Z,12.57
2024-03-08T12:17:56.788Z,11.55
2024-03-08T12:19:58.524Z,12.57
2024-03-08T12:22:09.727Z,12.45
2024-03-08T12:24:12.096Z,11.73
2024-03-08T12:26:15.264Z,11.73
2024-03-08T12:28:17.134Z,11.60
2024-03-08T12:30:34.641Z,12.43
2024-03-08T12:32:36.604Z,11.77
2024-03-08T12:34:38.292Z,11.38
2024-03-08T12:36:44.789Z,11.30
2024-03-08T12:38:49.727Z,10.95
2024-03-08T12:40:51.515Z,12.57
2024-03-08T12:42:53.050Z,12.73
2024-03-08T12:44:55.761Z,11.82
2024-03-08T12:47:00.145Z,12.30
2024-03-08T12:49:02.416Z,12.15
2024-03-08T12:51:04.675Z,11.93
2024-03-08T12:53:30.091Z,11.68
2024-03-08T12:55:34.994Z,11.57
2024-03-08T12:57:38.811Z,12.63
2024-03-08T12:59:40.443Z,10.75
2024-03-08T13:01:42.354Z,10.27
2024-03-08T13:04:07.422Z,9.48
2024-03-08T13:06:09.794Z,10.27
2024-03-08T13:08:14.611Z,11.05
2024-03-08T13:10:17.092Z,9.68
2024-03-08T13:12:39.352Z,10.52
2024-03-08T13:14:44.123Z,9.70
2024-03-08T13:16:49.592Z,9.45
2024-03-08T13:18:54.522Z,10.38
2024-03-08T13:20:58.962Z,11.23
2024-03-08T13:23:03.599Z,10.23
2024-03-08T13:25:06.427Z,9.75
2024-03-08T13:27:21.511Z,10.10
2024-03-08T13:29:24.136Z,9.63
2024-03-08T13:31:44.234Z,9.88
2024-03-08T13:33:47.974Z,10.75
2024-03-08T13:35:52.032Z,10.45
2024-03-08T13:39:55.321Z,9.65
2024-03-08T13:41:56.805Z,9.23
2024-03-08T13:43:58.694Z,9.68
2024-03-08T13:46:19.796Z,9.75
2024-03-08T13:48:23.139Z,10.68
2024-03-08T13:50:25.056Z,10.60
2024-03-08T13:52:30.347Z,9.70
2024-03-08T13:54:32.565Z,9.63
2024-03-08T13:56:34.103Z,10.40
2024-03-08T13:58:36.380Z,9.98
2024-03-08T14:00:38.099Z,9.80
2024-03-08T14:02:58.038Z,9.43
2024-03-08T14:05:02.945Z,9.55
2024-03-08T14:07:05.539Z,8.98
2024-03-08T14:09:25.819Z,9.20
2024-03-08T14:11:27.415Z,8.82
2024-03-08T14:13:29.052Z,8.77
2024-03-08T14:15:31.146Z,9.30
2024-03-08T14:17:33.061Z,9.93
2024-03-08T14:19:53.288Z,9.45
2024-03-08T14:21:55.062Z,9.85
2024-03-08T14:23:57.569Z,8.30
2024-03-08T14:26:00.646Z,8.20
2024-03-08T14:28:08.370Z,8.07
2024-03-08T14:30:11.582Z,8.43
2024-03-08T14:32:14.001Z,8.90
2024-03-08T14:34:15.843Z,10.23
2024-03-08T14:36:20.942Z,10.98
2024-03-08T14:38:22.457Z,10.50
2024-03-08T14:40:25.265Z,9.38
2024-03-08T14:42:27.485Z,9.45
2024-03-08T14:44:30.632Z,9.40
2024-03-08T14:46:32.249Z,9.20
2024-03-08T14:48:33.843Z,10.40
2024-03-08T14:50:38.029Z,9.48
2024-03-08T14:52:41.127Z,10.63
2024-03-08T14:54:44.388Z,9.35
2024-03-08T14:57:05.660Z,9.00
2024-03-08T14:59:28.392Z,10.00
2024-03-08T15:01:30.817Z,9.43
2024-03-08T15:03:33.482Z,10.35
2024-03-08T15:05:39.371Z,10.93
2024-03-08T15:08:11.144Z,10.48
2024-03-08T15:10:17.439Z,10.70
2024-03-08T15:12:19.064Z,11.02
2024-03-08T15:14:21.413Z,9.98
2024-03-08T15:16:25.922Z,10.07
2024-03-08T15:18:29.840Z,10.75
2024-03-08T15:20:35.831Z,10.00
2024-03-08T15:22:39.352Z,10.15
2024-03-08T15:24:44.341Z,10.00
2024-03-08T15:26:48.077Z,10.20
2024-03-08T15:28:53.275Z,11.65
2024-03-08T15:30:55.527Z,11.32
2024-03-08T15:33:16.613Z,10.95
2024-03-08T15:35:19.642Z,10.25
2024-03-08T15:37:21.171Z,10.52
2024-03-08T15:39:24.275Z,10.60
2024-03-08T15:41:27.842Z,10.93
2024-03-08T15:43:29.373Z,11.40
2024-03-08T15:45:31.056Z,9.68
2024-03-08T15:47:34.365Z,11.00
2024-03-08T15:49:35.965Z,10.65
2024-03-08T15:51:40.137Z,11.60
2024-03-08T15:54:00.467Z,10.30
2024-03-08T15:56:03.990Z,11.77
2024-03-08T15:58:07.564Z,11.95
2024-03-08T16:00:19.789Z,12.20
2024-03-08T16:02:23.496Z,10.68
2024-03-08T16:04:26.412Z,10.85
2024-03-08T16:06:47.825Z,11.50
2024-03-08T16:08:51.490Z,10.88
2024-03-08T16:13:01.746Z,11.35
2024-03-08T16:15:06.763Z,12.40
2024-03-08T16:17:09.884Z,12.15
2024-03-08T16:19:34.019Z,11.95
2024-03-08T16:21:37.535Z,13.02
2024-03-08T16:23:58.248Z,13.95
2024-03-08T16:26:01.182Z,13.15
2024-03-08T16:28:05.664Z,12.98
2024-03-08T16:30:17.093Z,12.95
2024-03-08T16:32:38.648Z,11.57
2024-03-08T16:34:41.967Z,11.70
2024-03-08T16:36:44.236Z,13.80
2024-03-08T16:38:47.588Z,14.00
2024-03-08T16:41:02.666Z,14.57
2024-03-08T16:43:05.449Z,15.18
2024-03-08T16:45:12.628Z,15.40
2024-03-08T16:47:14.705Z,16.10
2024-03-08T16:49:16.616Z,16.80
2024-03-08T16:51:19.278Z,15.65
2024-03-08T16:53:21.128Z,15.05
2024-03-08T16:55:22.810Z,15.13
2024-03-08T16:57:26.620Z,16.70
2024-03-08T16:59:28.162Z,17.73
2024-03-08T17:01:30.037Z,16.52
2024-03-08T17:03:34.034Z,16.50
2024-03-08T17:05:39.074Z,17.00
2024-03-08T17:10:56.608Z,17.60
2024-03-08T17:13:01.763Z,19.27
2024-03-08T17:15:03.383Z,20.85
2024-03-08T17:17:06.197Z,20.88
2024-03-08T17:19:07.849Z,22.25
2024-03-08T17:21:14.149Z,20.23
2024-03-08T17:23:17.279Z,20.83
2024-03-08T17:25:22.403Z,24.55
2024-03-08T17:27:25.842Z,22.58
2024-03-08T17:29:27.932Z,22.50
2024-03-08T17:31:29.782Z,20.67
2024-03-08T17:33:36.200Z,23.88
2024-03-08T17:35:41.275Z,20.73
2024-03-08T17:37:43.006Z,24.08
2024-03-08T17:39:44.551Z,24.08
2024-03-08T17:41:49.495Z,22.55
2024-03-08T17:44:10.668Z,20.52
2024-03-08T17:46:13.753Z,22.67
2024-03-08T17:48:18.564Z,23.08
2024-03-08T17:50:21.817Z,23.10
2024-03-08T17:52:24.178Z,23.30
2024-03-08T17:54:25.686Z,23.23
2024-03-08T17:56:27.461Z,22.92
2024-03-08T17:58:29.103Z,23.40
2024-03-08T18:00:33.569Z,23.88
2024-03-08T18:02:55.422Z,26.02
2024-03-08T18:04:57.901Z,23.25
2024-03-08T18:06:59.449Z,22.52
2024-03-08T18:09:00.957Z,24.90
2024-03-08T18:11:02.539Z,24.52
2024-03-08T18:13:13.718Z,22.63
2024-03-08T18:15:21.318Z,22.23
2024-03-08T18:17:22.983Z,23.95
2024-03-08T18:19:24.546Z,23.73
2024-03-08T18:21:26.324Z,23.75
2024-03-08T18:23:27.854Z,22.83
2024-03-08T18:25:30.164Z,23.13
2024-03-08T18:27:31.684Z,23.95
2024-03-08T18:29:33.671Z,26.35
2024-03-08T18:31:35.872Z,24.90
2024-03-08T18:33:37.473Z,25.65
2024-03-08T18:35:39.698Z,25.38
2024-03-08T18:37:41.679Z,24.65
2024-03-08T18:39:43.459Z,26.42
2024-03-08T18:41:45.129Z,23.75
2024-03-08T18:43:46.909Z,25.77
2024-03-08T18:45:48.517Z,25.23
2024-03-08T18:47:51.101Z,24.85
2024-03-08T18:49:52.657Z,26.23
2024-03-08T18:51:55.572Z,26.02
2024-03-08T18:53:57.147Z,24.33
2024-03-08T18:55:58.712Z,25.80
2024-03-08T18:58:24.392Z,26.05
2024-03-08T19:00:39.078Z,26.55
2024-03-08T19:03:02.137Z,27.50
2024-03-08T19:05:06.346Z,26.58
2024-03-08T19:07:11.194Z,26.08
2024-03-08T19:09:15.780Z,27.35
2024-03-08T19:11:17.837Z,28.15
2024-03-08T19:13:19.635Z,26.02
2024-03-08T19:15:22.458Z,27.90
2024-03-08T19:17:24.510Z,27.15
2024-03-08T19:19:26.200Z,29.05
2024-03-08T19:21:46.870Z,28.33
2024-03-08T19:23:49.602Z,28.63
2024-03-08T19:25:51.803Z,28.05
2024-03-08T19:27:54.665Z,27.65
2024-03-08T19:29:56.719Z,26.52
2024-03-08T19:31:58.613Z,28.17
2024-03-08T19:34:00.276Z,27.90
2024-03-08T19:36:05.613Z,28.33
2024-03-08T19:38:12.599Z,27.63
2024-03-08T19:40:25.785Z,27.80
2024-03-08T19:42:27.669Z,28.02
2024-03-08T19:44:30.079Z,27.20
2024-03-08T19:46:50.692Z,27.55
2024-03-08T19:48:52.219Z,27.50
2024-03-08T19:50:53.747Z,27.45
2024-03-08T19:52:56.246Z,29.38
2024-03-08T19:54:58.117Z,27.70
2024-03-08T19:57:05.137Z,28.60
2024-03-08T19:59:07.062Z,27.77
2024-03-08T20:01:10.652Z,29.80
2024-03-08T20:03:17.561Z,28.30
2024-03-08T20:07:39.006Z,27.02
2024-03-08T20:09:40.571Z,28.63
2024-03-08T20:12:00.681Z,30.92
2024-03-08T20:14:21.251Z,28.00
2024-03-08T20:16:22.853Z,29.52
2024-03-08T20:18:28.434Z,28.25
2024-03-08T20:20:30.105Z,31.42
2024-03-08T20:22:53.188Z,30.25
2024-03-08T20:25:18.578Z,26.75
2024-03-08T20:27:45.692Z,28.10
2024-03-08T20:29:47.224Z,28.98
2024-03-08T20:32:08.548Z,28.40
2024-03-08T20:34:10.996Z,29.48
2024-03-08T20:36:12.642Z,30.00
2024-03-08T20:38:22.090Z,29.17
2024-03-08T20:40:25.293Z,31.20
2024-03-08T20:42:46.711Z,29.85
2024-03-08T20:44:48.290Z,29.17
2024-03-08T20:46:50.384Z,29.92
2024-03-08T20:48:51.955Z,27.92
2024-03-08T20:50:54.885Z,31.88
2024-03-08T20:52:56.555Z,29.35
2024-03-08T20:54:58.115Z,29.85
2024-03-08T20:56:59.619Z,30.40
2024-03-08T20:59:20.485Z,31.00
2024-03-08T21:01:26.416Z,29.67
2024-03-08T21:03:29.719Z,30.33
2024-03-08T21:05:31.632Z,29.83
2024-03-08T21:07:33.287Z,29.40
2024-03-08T21:09:34.812Z,29.65
2024-03-08T21:11:36.551Z,30.02
2024-03-08T21:13:38.216Z,29.10
2024-03-08T21:15:45.933Z,29.65
2024-03-08T21:17:47.979Z,27.83
2024-03-08T21:19:51.070Z,27.38
2024-03-08T21:21:52.848Z,32.55
2024-03-08T21:23:55.305Z,30.73
2024-03-08T21:25:56.902Z,28.17
2024-03-08T21:28:01.896Z,28.15
2024-03-08T21:30:03.527Z,28.33
2024-03-08T21:32:08.036Z,28.73
2024-03-08T21:34:09.749Z,30.77
2024-03-08T21:36:12.591Z,28.52
2024-03-08T21:38:14.418Z,28.92
2024-03-08T21:40:23.001Z,28.70
2024-03-08T21:42:24.999Z,29.27
2024-03-08T21:44:29.234Z,27.05
2024-03-08T21:46:30.976Z,28.00
2024-03-08T21:48:33.571Z,29.60
2024-03-08T21:50:35.339Z,28.42
2024-03-08T21:52:36.947Z,29.15
2024-03-08T21:54:38.963Z,28.08
2024-03-08T21:56:40.493Z,27.42
2024-03-08T21:58:42.233Z,29.15
2024-03-08T22:01:02.279Z,30.70
2024-03-08T22:03:06.492Z,26.73
2024-03-08T22:05:09.540Z,27.17
2024-03-08T22:07:12.206Z,27.70
2024-03-08T22:09:32.679Z,28.05
2024-03-08T22:11:34.842Z,29.55
2024-03-08T22:13:36.453Z,27.52
2024-03-08T22:15:39.188Z,27.98
2024-03-08T22:17:41.807Z,30.23
2024-03-08T22:19:44.678Z,27.83
2024-03-08T22:22:06.359Z,28.27
2024-03-08T22:24:08.655Z,28.48
2024-03-08T22:26:14.178Z,29.40
2024-03-08T22:28:18.109Z,28.00
2024-03-08T22:30:20.594Z,27.65
2024-03-08T22:32:22.729Z,30.02
2024-03-08T22:34:25.510Z,30.30
2024-03-08T22:36:27.490Z,29.13
2024-03-08T22:38:29.193Z,32.50
2024-03-08T22:40:32.942Z,29.90
2024-03-08T22:42:36.284Z,27.95
2024-03-08T22:44:37.957Z,29.20
2024-03-08T22:46:40.095Z,29.85
2024-03-08T22:48:43.009Z,27.52
2024-03-08T22:50:45.976Z,29.83
2024-03-08T22:52:49.561Z,29.33
2024-03-08T22:57:06.227Z,27.20
2024-03-08T22:59:07.771Z,28.23
2024-03-08T23:01:10.446Z,27.02
2024-03-08T23:03:13.926Z,29.20
2024-03-08T23:05:34.889Z,28.55
2024-03-08T23:07:36.560Z,26.80
2024-03-08T23:09:38.508Z,28.77
2024-03-08T23:11:41.528Z,28.67
2024-03-08T23:13:46.886Z,29.63
2024-03-08T23:15:48.616Z,29.35
2024-03-08T23:17:51.463Z,28.63
2024-03-08T23:19:56.948Z,29.08
2024-03-08T23:22:00.425Z,27.55
2024-03-08T23:24:20.371Z,27.98
2024-03-08T23:26:21.966Z,28.48
2024-03-08T23:28:23.489Z,27.75
2024-03-08T23:30:26.004Z,27.27
2024-03-08T23:32:27.958Z,29.88
2024-03-08T23:34:30.607Z,27.83
2024-03-08T23:36:32.260Z,29.73
2024-03-08T23:38:33.757Z,28.08
2024-03-08T23:40:35.346Z,29.42
2024-03-08T23:42:36.857Z,27.80
2024-03-08T23:44:41.588Z,27.88
2024-03-08T23:46:43.377Z,29.00
2024-03-08T23:48:45.447Z,27.80
2024-03-08T23:50:47.438Z,29.02
2024-03-08T23:52:51.959Z,27.48
2024-03-08T23:54:53.717Z,26.35
2024-03-08T23:56:55.240Z,27.75
2024-03-08T23:58:56.900Z,27.70
